sensor_id;sensor_type;location;lat;lon;timestamp;temperature;humidity
70475;DHT22;57944;48.722;9.316;2023-04-24T00:01:53;9.80;99.90
70475;DHT22;57944;48.722;9.316;2023-04-24T00:04:23;9.90;99.90
70475;DHT22;57944;48.722;9.316;2023-04-24T00:06:53;9.80;99.90
70475;DHT22;57944;48.722;9.316;2023-04-24T00:09:26;10.00;99.90
70475;DHT22;57944;48.722;9.316;2023-04-24T00:11:56;10.10;99.90
70475;DHT22;57944;48.722;9.316;2023-04-24T00:14:27;10.10;99.90
70475;DHT22;57944;48.722;9.316;2023-04-24T00:16:56;10.20;99.90
70475;DHT22;57944;48.722;9.316;2023-04-24T00:19:27;10.30;99.90
70475;DHT22;57944;48.722;9.316;2023-04-24T00:21:56;10.20;99.90
70475;DHT22;57944;48.722;9.316;2023-04-24T00:24:29;9.80;99.90
70475;DHT22;57944;48.722;9.316;2023-04-24T00:26:59;9.80;99.90
70475;DHT22;57944;48.722;9.316;2023-04-24T00:29:29;9.90;99.90
70475;DHT22;57944;48.722;9.316;2023-04-24T00:31:59;9.90;99.90
70475;DHT22;57944;48.722;9.316;2023-04-24T00:34:29;10.00;99.90
70475;DHT22;57944;48.722;9.316;2023-04-24T00:36:59;10.00;99.90
70475;DHT22;57944;48.722;9.316;2023-04-24T00:39:36;10.10;99.90
70475;DHT22;57944;48.722;9.316;2023-04-24T00:42:06;10.20;99.90
70475;DHT22;57944;48.722;9.316;2023-04-24T00:44:36;10.20;99.90
70475;DHT22;57944;48.722;9.316;2023-04-24T00:47:07;10.10;99.90
70475;DHT22;57944;48.722;9.316;2023-04-24T00:49:37;10.20;99.90
70475;DHT22;57944;48.722;9.316;2023-04-24T00:52:07;10.30;99.90
70475;DHT22;57944;48.722;9.316;2023-04-24T00:54:40;10.30;99.90
70475;DHT22;57944;48.722;9.316;2023-04-24T00:57:10;10.40;99.90
70475;DHT22;57944;48.722;9.316;2023-04-24T00:59:40;10.40;99.90
70475;DHT22;57944;48.722;9.316;2023-04-24T01:02:10;10.50;99.90
70475;DHT22;57944;48.722;9.316;2023-04-24T01:04:42;10.50;99.90
70475;DHT22;57944;48.722;9.316;2023-04-24T01:07:12;10.60;99.90
70475;DHT22;57944;48.722;9.316;2023-04-24T01:09:45;10.70;99.90
70475;DHT22;57944;48.722;9.316;2023-04-24T01:12:19;10.70;99.90
70475;DHT22;57944;48.722;9.316;2023-04-24T01:14:49;10.80;99.90
70475;DHT22;57944;48.722;9.316;2023-04-24T01:17:19;10.70;99.90
70475;DHT22;57944;48.722;9.316;2023-04-24T01:19:49;10.80;99.90
70475;DHT22;57944;48.722;9.316;2023-04-24T01:22:23;10.80;99.90
70475;DHT22;57944;48.722;9.316;2023-04-24T01:24:53;10.80;99.90
70475;DHT22;57944;48.722;9.316;2023-04-24T01:27:23;10.80;99.90
70475;DHT22;57944;48.722;9.316;2023-04-24T01:29:53;10.80;99.90
70475;DHT22;57944;48.722;9.316;2023-04-24T01:32:23;10.80;99.90
70475;DHT22;57944;48.722;9.316;2023-04-24T01:34:54;10.80;99.90
70475;DHT22;57944;48.722;9.316;2023-04-24T01:37:27;10.80;99.90
70475;DHT22;57944;48.722;9.316;2023-04-24T01:39:59;10.80;99.90
70475;DHT22;57944;48.722;9.316;2023-04-24T01:42:30;10.80;99.90
70475;DHT22;57944;48.722;9.316;2023-04-24T01:45:01;10.80;99.90
70475;DHT22;57944;48.722;9.316;2023-04-24T01:47:32;10.80;99.90
70475;DHT22;57944;48.722;9.316;2023-04-24T01:50:03;10.70;99.90
70475;DHT22;57944;48.722;9.316;2023-04-24T01:52:36;10.70;99.90
70475;DHT22;57944;48.722;9.316;2023-04-24T01:55:09;10.60;99.90
70475;DHT22;57944;48.722;9.316;2023-04-24T01:57:39;10.30;99.90
70475;DHT22;57944;48.722;9.316;2023-04-24T02:00:10;10.20;99.90
70475;DHT22;57944;48.722;9.316;2023-04-24T02:02:41;10.30;99.90
70475;DHT22;57944;48.722;9.316;2023-04-24T02:05:14;10.40;99.90
70475;DHT22;57944;48.722;9.316;2023-04-24T02:07:46;10.60;99.90
70475;DHT22;57944;48.722;9.316;2023-04-24T02:10:16;10.60;99.90
70475;DHT22;57944;48.722;9.316;2023-04-24T02:12:46;10.60;99.90
70475;DHT22;57944;48.722;9.316;2023-04-24T02:15:16;10.60;99.90
70475;DHT22;57944;48.722;9.316;2023-04-24T02:17:46;10.50;99.90
70475;DHT22;57944;48.722;9.316;2023-04-24T02:20:16;10.50;99.90
70475;DHT22;57944;48.722;9.316;2023-04-24T02:22:48;10.60;99.90
70475;DHT22;57944;48.722;9.316;2023-04-24T02:25:18;10.60;99.90
70475;DHT22;57944;48.722;9.316;2023-04-24T02:27:49;10.50;99.90
70475;DHT22;57944;48.722;9.316;2023-04-24T02:30:18;10.50;99.90
70475;DHT22;57944;48.722;9.316;2023-04-24T02:32:49;10.30;99.90
70475;DHT22;57944;48.722;9.316;2023-04-24T02:35:18;10.30;99.90
70475;DHT22;57944;48.722;9.316;2023-04-24T02:37:51;10.40;99.90
70475;DHT22;57944;48.722;9.316;2023-04-24T02:40:21;10.30;99.90
70475;DHT22;57944;48.722;9.316;2023-04-24T02:42:51;10.30;99.90
70475;DHT22;57944;48.722;9.316;2023-04-24T02:45:23;10.30;99.90
70475;DHT22;57944;48.722;9.316;2023-04-24T02:47:53;10.40;99.90
70475;DHT22;57944;48.722;9.316;2023-04-24T02:50:23;10.40;99.90
70475;DHT22;57944;48.722;9.316;2023-04-24T02:52:55;10.40;99.90
70475;DHT22;57944;48.722;9.316;2023-04-24T02:55:26;10.50;99.90
70475;DHT22;57944;48.722;9.316;2023-04-24T02:57:56;10.50;99.90
70475;DHT22;57944;48.722;9.316;2023-04-24T03:00:26;10.60;99.90
70475;DHT22;57944;48.722;9.316;2023-04-24T03:02:56;10.70;99.90
70475;DHT22;57944;48.722;9.316;2023-04-24T03:05:27;10.60;99.90
70475;DHT22;57944;48.722;9.316;2023-04-24T03:08:00;10.60;99.90
70475;DHT22;57944;48.722;9.316;2023-04-24T03:10:30;10.60;99.90
70475;DHT22;57944;48.722;9.316;2023-04-24T03:13:00;10.60;99.90
70475;DHT22;57944;48.722;9.316;2023-04-24T03:15:30;10.50;99.90
70475;DHT22;57944;48.722;9.316;2023-04-24T03:18:00;10.50;99.90
70475;DHT22;57944;48.722;9.316;2023-04-24T03:20:30;10.50;99.90
70475;DHT22;57944;48.722;9.316;2023-04-24T03:23:04;10.60;99.90
70475;DHT22;57944;48.722;9.316;2023-04-24T03:25:35;10.60;99.90
70475;DHT22;57944;48.722;9.316;2023-04-24T03:28:05;10.70;99.90
70475;DHT22;57944;48.722;9.316;2023-04-24T03:30:46;10.60;99.90
70475;DHT22;57944;48.722;9.316;2023-04-24T03:33:17;10.50;99.90
70475;DHT22;57944;48.722;9.316;2023-04-24T03:35:59;10.50;99.90
70475;DHT22;57944;48.722;9.316;2023-04-24T03:38:40;10.40;99.90
70475;DHT22;57944;48.722;9.316;2023-04-24T03:41:23;10.30;99.90
70475;DHT22;57944;48.722;9.316;2023-04-24T03:43:59;10.20;99.90
70475;DHT22;57944;48.722;9.316;2023-04-24T03:46:30;10.10;99.90
70475;DHT22;57944;48.722;9.316;2023-04-24T03:49:01;10.10;99.90
70475;DHT22;57944;48.722;9.316;2023-04-24T03:51:34;10.00;99.90
70475;DHT22;57944;48.722;9.316;2023-04-24T03:54:15;10.10;99.90
70475;DHT22;57944;48.722;9.316;2023-04-24T03:56:45;10.20;99.90
70475;DHT22;57944;48.722;9.316;2023-04-24T03:59:16;10.10;99.90
70475;DHT22;57944;48.722;9.316;2023-04-24T04:01:54;10.00;99.90
70475;DHT22;57944;48.722;9.316;2023-04-24T04:04:24;9.90;99.90
70475;DHT22;57944;48.722;9.316;2023-04-24T04:06:54;9.80;99.90
70475;DHT22;57944;48.722;9.316;2023-04-24T04:09:30;9.70;99.90
70475;DHT22;57944;48.722;9.316;2023-04-24T04:12:00;9.50;99.90
70475;DHT22;57944;48.722;9.316;2023-04-24T04:14:32;9.50;99.90
70475;DHT22;57944;48.722;9.316;2023-04-24T04:17:02;9.50;99.90
70475;DHT22;57944;48.722;9.316;2023-04-24T04:19:32;9.50;99.90
70475;DHT22;57944;48.722;9.316;2023-04-24T04:22:02;9.50;99.90
70475;DHT22;57944;48.722;9.316;2023-04-24T04:24:42;9.60;99.90
70475;DHT22;57944;48.722;9.316;2023-04-24T04:27:13;9.70;99.90
70475;DHT22;57944;48.722;9.316;2023-04-24T04:30:04;9.80;99.90
70475;DHT22;57944;48.722;9.316;2023-04-24T04:32:44;9.90;99.90
70475;DHT22;57944;48.722;9.316;2023-04-24T04:35:14;10.00;99.90
70475;DHT22;57944;48.722;9.316;2023-04-24T04:37:44;10.10;99.90
70475;DHT22;57944;48.722;9.316;2023-04-24T04:40:26;10.20;99.90
70475;DHT22;57944;48.722;9.316;2023-04-24T04:43:01;10.20;99.90
70475;DHT22;57944;48.722;9.316;2023-04-24T04:45:38;10.10;99.90
70475;DHT22;57944;48.722;9.316;2023-04-24T04:48:29;9.80;99.90
70475;DHT22;57944;48.722;9.316;2023-04-24T04:51:02;9.60;99.90
70475;DHT22;57944;48.722;9.316;2023-04-24T04:53:32;9.50;99.90
70475;DHT22;57944;48.722;9.316;2023-04-24T04:56:05;9.40;99.90
70475;DHT22;57944;48.722;9.316;2023-04-24T04:58:44;9.10;99.90
70475;DHT22;57944;48.722;9.316;2023-04-24T05:01:16;9.00;99.90
70475;DHT22;57944;48.722;9.316;2023-04-24T05:03:47;8.90;99.90
70475;DHT22;57944;48.722;9.316;2023-04-24T05:06:17;8.80;99.90
70475;DHT22;57944;48.722;9.316;2023-04-24T05:08:50;8.70;99.90
70475;DHT22;57944;48.722;9.316;2023-04-24T05:11:46;8.60;99.90
70475;DHT22;57944;48.722;9.316;2023-04-24T05:14:16;8.50;99.90
70475;DHT22;57944;48.722;9.316;2023-04-24T05:16:48;8.50;99.90
70475;DHT22;57944;48.722;9.316;2023-04-24T05:19:20;8.60;99.90
70475;DHT22;57944;48.722;9.316;2023-04-24T05:21:50;8.60;99.90
70475;DHT22;57944;48.722;9.316;2023-04-24T05:24:20;8.70;99.90
70475;DHT22;57944;48.722;9.316;2023-04-24T05:27:13;8.70;99.90
70475;DHT22;57944;48.722;9.316;2023-04-24T05:29:44;8.80;99.90
70475;DHT22;57944;48.722;9.316;2023-04-24T05:32:13;8.80;99.90
70475;DHT22;57944;48.722;9.316;2023-04-24T05:34:44;8.70;99.90
70475;DHT22;57944;48.722;9.316;2023-04-24T05:37:14;8.70;99.90
70475;DHT22;57944;48.722;9.316;2023-04-24T05:39:44;8.80;99.90
70475;DHT22;57944;48.722;9.316;2023-04-24T05:42:16;8.80;99.90
70475;DHT22;57944;48.722;9.316;2023-04-24T05:44:46;8.80;99.90
70475;DHT22;57944;48.722;9.316;2023-04-24T05:47:19;8.90;99.90
70475;DHT22;57944;48.722;9.316;2023-04-24T05:49:51;8.90;99.90
70475;DHT22;57944;48.722;9.316;2023-04-24T05:52:22;8.90;99.90
70475;DHT22;57944;48.722;9.316;2023-04-24T05:54:52;9.00;99.90
70475;DHT22;57944;48.722;9.316;2023-04-24T05:57:28;9.20;99.90
70475;DHT22;57944;48.722;9.316;2023-04-24T06:00:02;9.40;99.90
70475;DHT22;57944;48.722;9.316;2023-04-24T06:02:39;9.50;99.90
70475;DHT22;57944;48.722;9.316;2023-04-24T06:05:11;9.60;99.90
70475;DHT22;57944;48.722;9.316;2023-04-24T06:07:41;9.70;99.90
70475;DHT22;57944;48.722;9.316;2023-04-24T06:10:12;9.70;99.90
70475;DHT22;57944;48.722;9.316;2023-04-24T06:12:46;9.80;99.90
70475;DHT22;57944;48.722;9.316;2023-04-24T06:15:17;9.80;99.90
70475;DHT22;57944;48.722;9.316;2023-04-24T06:18:00;9.90;99.90
70475;DHT22;57944;48.722;9.316;2023-04-24T06:20:30;10.00;99.90
70475;DHT22;57944;48.722;9.316;2023-04-24T06:23:01;10.10;99.90
70475;DHT22;57944;48.722;9.316;2023-04-24T06:25:32;10.30;99.90
70475;DHT22;57944;48.722;9.316;2023-04-24T06:28:05;10.30;99.90
70475;DHT22;57944;48.722;9.316;2023-04-24T06:30:35;11.00;99.90
70475;DHT22;57944;48.722;9.316;2023-04-24T06:33:05;13.10;99.90
70475;DHT22;57944;48.722;9.316;2023-04-24T06:35:47;14.80;99.90
70475;DHT22;57944;48.722;9.316;2023-04-24T06:38:17;15.10;99.90
70475;DHT22;57944;48.722;9.316;2023-04-24T06:40:47;15.30;99.90
70475;DHT22;57944;48.722;9.316;2023-04-24T06:43:20;16.70;99.90
70475;DHT22;57944;48.722;9.316;2023-04-24T06:45:50;18.70;99.90
70475;DHT22;57944;48.722;9.316;2023-04-24T07:31:11;16.10;99.90
70475;DHT22;57944;48.722;9.316;2023-04-24T07:33:41;15.00;99.90
70475;DHT22;57944;48.722;9.316;2023-04-24T07:36:11;14.20;99.90
70475;DHT22;57944;48.722;9.316;2023-04-24T07:38:45;13.00;99.90
70475;DHT22;57944;48.722;9.316;2023-04-24T07:41:15;12.00;99.90
70475;DHT22;57944;48.722;9.316;2023-04-24T07:43:48;11.40;99.90
70475;DHT22;57944;48.722;9.316;2023-04-24T07:46:18;11.10;99.90
70475;DHT22;57944;48.722;9.316;2023-04-24T07:48:48;10.90;99.90
70475;DHT22;57944;48.722;9.316;2023-04-24T07:51:37;10.80;99.90
70475;DHT22;57944;48.722;9.316;2023-04-24T07:54:08;11.00;99.90
70475;DHT22;57944;48.722;9.316;2023-04-24T07:56:38;12.50;99.90
70475;DHT22;57944;48.722;9.316;2023-04-24T07:59:12;14.80;99.90
70475;DHT22;57944;48.722;9.316;2023-04-24T08:01:42;17.60;99.90
70475;DHT22;57944;48.722;9.316;2023-04-24T08:04:12;19.50;99.90
70475;DHT22;57944;48.722;9.316;2023-04-24T08:06:42;20.30;99.90
70475;DHT22;57944;48.722;9.316;2023-04-24T08:09:12;19.80;99.90
70475;DHT22;57944;48.722;9.316;2023-04-24T08:11:43;20.20;99.40
70475;DHT22;57944;48.722;9.316;2023-04-24T08:14:15;20.70;99.40
70475;DHT22;57944;48.722;9.316;2023-04-24T08:16:46;21.70;97.50
70475;DHT22;57944;48.722;9.316;2023-04-24T08:19:16;21.50;97.90
70475;DHT22;57944;48.722;9.316;2023-04-24T08:21:46;22.50;96.70
70475;DHT22;57944;48.722;9.316;2023-04-24T08:24:15;22.10;95.20
70475;DHT22;57944;48.722;9.316;2023-04-24T08:26:46;22.10;93.90
70475;DHT22;57944;48.722;9.316;2023-04-24T08:29:19;20.30;93.10
70475;DHT22;57944;48.722;9.316;2023-04-24T08:31:50;18.20;94.80
70475;DHT22;57944;48.722;9.316;2023-04-24T08:34:21;16.70;98.00
70475;DHT22;57944;48.722;9.316;2023-04-24T08:36:51;15.80;99.20
70475;DHT22;57944;48.722;9.316;2023-04-24T08:39:21;15.30;99.00
70475;DHT22;57944;48.722;9.316;2023-04-24T08:41:51;15.20;99.90
70475;DHT22;57944;48.722;9.316;2023-04-24T08:44:25;15.00;99.90
70475;DHT22;57944;48.722;9.316;2023-04-24T08:46:54;14.90;99.90
70475;DHT22;57944;48.722;9.316;2023-04-24T08:49:24;14.60;99.90
70475;DHT22;57944;48.722;9.316;2023-04-24T08:51:56;16.10;99.90
70475;DHT22;57944;48.722;9.316;2023-04-24T08:54:26;16.70;98.70
70475;DHT22;57944;48.722;9.316;2023-04-24T08:56:58;17.10;98.50
70475;DHT22;57944;48.722;9.316;2023-04-24T08:59:33;17.90;97.70
70475;DHT22;57944;48.722;9.316;2023-04-24T09:02:04;18.80;97.40
70475;DHT22;57944;48.722;9.316;2023-04-24T09:04:34;18.80;95.20
70475;DHT22;57944;48.722;9.316;2023-04-24T09:07:05;17.70;96.00
70475;DHT22;57944;48.722;9.316;2023-04-24T09:09:37;16.50;95.90
70475;DHT22;57944;48.722;9.316;2023-04-24T09:12:08;15.30;97.60
70475;DHT22;57944;48.722;9.316;2023-04-24T09:14:41;14.90;97.90
70475;DHT22;57944;48.722;9.316;2023-04-24T09:17:12;15.10;99.20
70475;DHT22;57944;48.722;9.316;2023-04-24T09:19:42;16.40;98.00
70475;DHT22;57944;48.722;9.316;2023-04-24T09:22:12;16.90;97.90
70475;DHT22;57944;48.722;9.316;2023-04-24T09:24:42;17.60;95.90
70475;DHT22;57944;48.722;9.316;2023-04-24T09:27:12;16.80;94.90
70475;DHT22;57944;48.722;9.316;2023-04-24T09:29:55;15.90;96.40
70475;DHT22;57944;48.722;9.316;2023-04-24T09:32:25;15.70;96.10
70475;DHT22;57944;48.722;9.316;2023-04-24T09:35:10;15.20;97.40
70475;DHT22;57944;48.722;9.316;2023-04-24T09:37:42;14.90;97.00
70475;DHT22;57944;48.722;9.316;2023-04-24T09:40:14;14.30;96.90
70475;DHT22;57944;48.722;9.316;2023-04-24T09:42:45;14.10;97.90
70475;DHT22;57944;48.722;9.316;2023-04-24T09:45:19;14.20;96.90
70475;DHT22;57944;48.722;9.316;2023-04-24T09:47:51;14.10;96.80
70475;DHT22;57944;48.722;9.316;2023-04-24T09:50:22;14.50;97.60
70475;DHT22;57944;48.722;9.316;2023-04-24T09:52:56;14.70;97.30
70475;DHT22;57944;48.722;9.316;2023-04-24T09:55:28;14.60;96.00
70475;DHT22;57944;48.722;9.316;2023-04-24T09:58:00;16.10;94.50
70475;DHT22;57944;48.722;9.316;2023-04-24T10:00:34;18.60;92.40
70475;DHT22;57944;48.722;9.316;2023-04-24T10:03:04;19.70;89.30
70475;DHT22;57944;48.722;9.316;2023-04-24T10:05:36;21.20;87.00
70475;DHT22;57944;48.722;9.316;2023-04-24T10:08:08;21.00;82.30
70475;DHT22;57944;48.722;9.316;2023-04-24T10:10:43;20.50;80.70
70475;DHT22;57944;48.722;9.316;2023-04-24T10:13:14;18.70;82.40
70475;DHT22;57944;48.722;9.316;2023-04-24T10:15:47;17.20;84.10
70475;DHT22;57944;48.722;9.316;2023-04-24T10:18:18;15.90;88.10
70475;DHT22;57944;48.722;9.316;2023-04-24T10:20:51;14.70;87.40
70475;DHT22;57944;48.722;9.316;2023-04-24T10:23:22;13.90;90.60
70475;DHT22;57944;48.722;9.316;2023-04-24T10:25:54;14.40;91.90
70475;DHT22;57944;48.722;9.316;2023-04-24T10:28:25;16.60;90.20
70475;DHT22;57944;48.722;9.316;2023-04-24T10:30:59;17.70;89.00
70475;DHT22;57944;48.722;9.316;2023-04-24T10:33:30;18.10;85.90
70475;DHT22;57944;48.722;9.316;2023-04-24T10:36:01;19.10;85.90
70475;DHT22;57944;48.722;9.316;2023-04-24T10:38:31;19.50;81.60
70475;DHT22;57944;48.722;9.316;2023-04-24T10:41:08;20.20;80.10
70475;DHT22;57944;48.722;9.316;2023-04-24T10:43:43;19.30;77.70
70475;DHT22;57944;48.722;9.316;2023-04-24T10:46:19;19.40;80.30
70475;DHT22;57944;48.722;9.316;2023-04-24T10:48:52;20.00;80.10
70475;DHT22;57944;48.722;9.316;2023-04-24T10:51:23;20.50;78.60
70475;DHT22;57944;48.722;9.316;2023-04-24T10:53:55;19.90;79.90
70475;DHT22;57944;48.722;9.316;2023-04-24T10:56:27;18.60;80.70
70475;DHT22;57944;48.722;9.316;2023-04-24T10:58:57;18.00;82.10
70475;DHT22;57944;48.722;9.316;2023-04-24T11:01:31;17.30;83.30
70475;DHT22;57944;48.722;9.316;2023-04-24T11:04:02;16.70;85.70
70475;DHT22;57944;48.722;9.316;2023-04-24T11:06:33;15.70;87.10
70475;DHT22;57944;48.722;9.316;2023-04-24T11:09:04;15.30;88.90
70475;DHT22;57944;48.722;9.316;2023-04-24T11:11:36;14.90;90.20
70475;DHT22;57944;48.722;9.316;2023-04-24T11:14:07;14.40;90.80
70475;DHT22;57944;48.722;9.316;2023-04-24T11:16:51;14.30;91.40
70475;DHT22;57944;48.722;9.316;2023-04-24T11:19:23;14.20;92.30
70475;DHT22;57944;48.722;9.316;2023-04-24T11:21:57;13.90;92.00
70475;DHT22;57944;48.722;9.316;2023-04-24T11:24:31;13.60;91.80
70475;DHT22;57944;48.722;9.316;2023-04-24T11:27:06;13.30;92.60
70475;DHT22;57944;48.722;9.316;2023-04-24T11:29:41;13.20;93.30
70475;DHT22;57944;48.722;9.316;2023-04-24T11:32:23;13.10;94.00
70475;DHT22;57944;48.722;9.316;2023-04-24T11:34:55;12.80;94.60
70475;DHT22;57944;48.722;9.316;2023-04-24T11:37:27;12.70;95.50
70475;DHT22;57944;48.722;9.316;2023-04-24T11:39:58;12.70;94.70
70475;DHT22;57944;48.722;9.316;2023-04-24T11:42:33;12.80;95.00
70475;DHT22;57944;48.722;9.316;2023-04-24T11:45:07;13.00;95.00
70475;DHT22;57944;48.722;9.316;2023-04-24T11:47:41;13.60;95.10
70475;DHT22;57944;48.722;9.316;2023-04-24T11:50:14;14.40;94.10
70475;DHT22;57944;48.722;9.316;2023-04-24T11:52:46;14.80;93.40
70475;DHT22;57944;48.722;9.316;2023-04-24T11:55:24;15.40;92.90
70475;DHT22;57944;48.722;9.316;2023-04-24T11:57:57;15.00;92.20
70475;DHT22;57944;48.722;9.316;2023-04-24T12:00:29;14.70;93.70
70475;DHT22;57944;48.722;9.316;2023-04-24T12:03:07;13.90;93.30
70475;DHT22;57944;48.722;9.316;2023-04-24T12:05:39;13.30;94.60
70475;DHT22;57944;48.722;9.316;2023-04-24T12:08:10;12.90;96.00
70475;DHT22;57944;48.722;9.316;2023-04-24T12:10:40;12.90;95.50
70475;DHT22;57944;48.722;9.316;2023-04-24T12:13:10;13.20;95.00
70475;DHT22;57944;48.722;9.316;2023-04-24T12:15:40;13.70;95.30
70475;DHT22;57944;48.722;9.316;2023-04-24T12:18:14;14.00;94.30
70475;DHT22;57944;48.722;9.316;2023-04-24T12:20:45;14.80;94.30
70475;DHT22;57944;48.722;9.316;2023-04-24T12:23:15;15.20;93.10
70475;DHT22;57944;48.722;9.316;2023-04-24T12:25:46;15.90;93.20
70475;DHT22;57944;48.722;9.316;2023-04-24T12:28:16;16.60;93.20
70475;DHT22;57944;48.722;9.316;2023-04-24T12:30:46;16.10;91.80
70475;DHT22;57944;48.722;9.316;2023-04-24T12:33:20;15.50;92.00
70475;DHT22;57944;48.722;9.316;2023-04-24T12:35:52;14.60;94.80
70475;DHT22;57944;48.722;9.316;2023-04-24T12:38:23;13.80;99.10
70475;DHT22;57944;48.722;9.316;2023-04-24T12:41:05;13.10;99.10
70475;DHT22;57944;48.722;9.316;2023-04-24T12:43:36;12.70;99.90
70475;DHT22;57944;48.722;9.316;2023-04-24T12:46:06;12.90;99.50
70475;DHT22;57944;48.722;9.316;2023-04-24T12:48:39;13.50;97.90
70475;DHT22;57944;48.722;9.316;2023-04-24T12:51:09;13.80;97.50
70475;DHT22;57944;48.722;9.316;2023-04-24T12:53:39;14.30;96.40
70475;DHT22;57944;48.722;9.316;2023-04-24T12:56:09;14.50;95.20
70475;DHT22;57944;48.722;9.316;2023-04-24T12:58:39;15.00;95.50
70475;DHT22;57944;48.722;9.316;2023-04-24T13:01:09;15.30;94.20
70475;DHT22;57944;48.722;9.316;2023-04-24T13:03:42;15.10;94.30
70475;DHT22;57944;48.722;9.316;2023-04-24T13:06:12;14.70;94.10
70475;DHT22;57944;48.722;9.316;2023-04-24T13:08:42;14.30;94.90
70475;DHT22;57944;48.722;9.316;2023-04-24T13:11:13;14.00;95.70
70475;DHT22;57944;48.722;9.316;2023-04-24T13:13:43;13.70;95.50
70475;DHT22;57944;48.722;9.316;2023-04-24T13:16:13;13.40;96.10
70475;DHT22;57944;48.722;9.316;2023-04-24T13:18:46;13.20;96.10
70475;DHT22;57944;48.722;9.316;2023-04-24T13:21:16;13.10;96.40
70475;DHT22;57944;48.722;9.316;2023-04-24T13:23:46;13.00;97.50
70475;DHT22;57944;48.722;9.316;2023-04-24T13:26:16;12.90;99.40
70475;DHT22;57944;48.722;9.316;2023-04-24T13:28:46;12.80;99.90
70475;DHT22;57944;48.722;9.316;2023-04-24T13:31:16;12.50;99.90
70475;DHT22;57944;48.722;9.316;2023-04-24T13:33:49;12.10;99.90
70475;DHT22;57944;48.722;9.316;2023-04-24T13:36:19;11.80;99.90
70475;DHT22;57944;48.722;9.316;2023-04-24T13:38:49;12.00;99.90
70475;DHT22;57944;48.722;9.316;2023-04-24T13:41:19;13.30;99.90
70475;DHT22;57944;48.722;9.316;2023-04-24T13:43:49;14.00;99.90
70475;DHT22;57944;48.722;9.316;2023-04-24T13:46:19;14.50;99.90
70475;DHT22;57944;48.722;9.316;2023-04-24T13:48:52;15.00;99.90
70475;DHT22;57944;48.722;9.316;2023-04-24T13:51:22;15.40;99.90
70475;DHT22;57944;48.722;9.316;2023-04-24T13:53:53;14.80;99.30
70475;DHT22;57944;48.722;9.316;2023-04-24T13:56:23;14.10;99.10
70475;DHT22;57944;48.722;9.316;2023-04-24T13:58:53;13.80;99.60
70475;DHT22;57944;48.722;9.316;2023-04-24T14:01:23;13.30;99.10
70475;DHT22;57944;48.722;9.316;2023-04-24T14:03:56;12.80;99.30
70475;DHT22;57944;48.722;9.316;2023-04-24T14:06:26;12.50;99.90
70475;DHT22;57944;48.722;9.316;2023-04-24T14:08:56;12.10;99.90
70475;DHT22;57944;48.722;9.316;2023-04-24T14:11:28;11.90;99.90
70475;DHT22;57944;48.722;9.316;2023-04-24T14:13:58;11.60;99.90
70475;DHT22;57944;48.722;9.316;2023-04-24T14:16:29;11.30;99.90
70475;DHT22;57944;48.722;9.316;2023-04-24T14:19:02;11.50;99.90
70475;DHT22;57944;48.722;9.316;2023-04-24T14:21:33;12.10;99.90
70475;DHT22;57944;48.722;9.316;2023-04-24T14:24:03;13.10;99.90
70475;DHT22;57944;48.722;9.316;2023-04-24T14:26:34;14.50;99.90
70475;DHT22;57944;48.722;9.316;2023-04-24T14:29:04;15.10;99.90
70475;DHT22;57944;48.722;9.316;2023-04-24T14:31:41;15.00;99.90
70475;DHT22;57944;48.722;9.316;2023-04-24T14:34:14;14.70;99.90
70475;DHT22;57944;48.722;9.316;2023-04-24T14:36:44;14.00;99.90
70475;DHT22;57944;48.722;9.316;2023-04-24T14:39:14;13.50;99.90
70475;DHT22;57944;48.722;9.316;2023-04-24T14:41:44;13.30;99.90
70475;DHT22;57944;48.722;9.316;2023-04-24T14:44:14;13.00;99.90
70475;DHT22;57944;48.722;9.316;2023-04-24T14:46:44;12.10;99.90
70475;DHT22;57944;48.722;9.316;2023-04-24T14:49:17;11.30;99.90
70475;DHT22;57944;48.722;9.316;2023-04-24T14:51:47;10.90;99.90
70475;DHT22;57944;48.722;9.316;2023-04-24T14:54:17;10.70;99.90
70475;DHT22;57944;48.722;9.316;2023-04-24T14:56:50;11.00;99.90
70475;DHT22;57944;48.722;9.316;2023-04-24T14:59:20;11.30;99.90
70475;DHT22;57944;48.722;9.316;2023-04-24T15:01:50;12.30;99.90
70475;DHT22;57944;48.722;9.316;2023-04-24T15:04:43;13.70;99.90
70475;DHT22;57944;48.722;9.316;2023-04-24T15:07:13;15.70;99.90
70475;DHT22;57944;48.722;9.316;2023-04-24T15:09:43;14.90;99.90
70475;DHT22;57944;48.722;9.316;2023-04-24T15:12:14;14.50;99.90
70475;DHT22;57944;48.722;9.316;2023-04-24T15:14:44;14.60;99.90
70475;DHT22;57944;48.722;9.316;2023-04-24T15:17:13;16.10;99.90
70475;DHT22;57944;48.722;9.316;2023-04-24T15:19:46;17.40;99.90
70475;DHT22;57944;48.722;9.316;2023-04-24T15:22:16;17.70;99.90
70475;DHT22;57944;48.722;9.316;2023-04-24T15:24:46;16.80;99.90
